sensor_id;sensor_type;location;lat;lon;timestamp;P1;durP1;ratioP1;P2;durP2;ratioP2
19758;SDS011;10038;42.662;23.278;2023-08-08T00:00:30;1.80;;;1.57;;
19758;SDS011;10038;42.662;23.278;2023-08-08T00:02:57;1.87;;;1.30;;
19758;SDS011;10038;42.662;23.278;2023-08-08T00:05:24;2.10;;;1.40;;
19758;SDS011;10038;42.662;23.278;2023-08-08T00:07:51;1.40;;;1.30;;
19758;SDS011;10038;42.662;23.278;2023-08-08T00:10:18;1.50;;;1.10;;
19758;SDS011;10038;42.662;23.278;2023-08-08T00:12:45;1.60;;;1.50;;
19758;SDS011;10038;42.662;23.278;2023-08-08T00:15:13;1.37;;;1.27;;
19758;SDS011;10038;42.662;23.278;2023-08-08T00:17:40;3.63;;;1.40;;
19758;SDS011;10038;42.662;23.278;2023-08-08T00:20:07;1.43;;;1.33;;
19758;SDS011;10038;42.662;23.278;2023-08-08T00:22:35;1.70;;;1.60;;
19758;SDS011;10038;42.662;23.278;2023-08-08T00:25:02;1.50;;;1.30;;
19758;SDS011;10038;42.662;23.278;2023-08-08T00:27:29;1.60;;;1.40;;
19758;SDS011;10038;42.662;23.278;2023-08-08T00:29:56;1.73;;;1.50;;
19758;SDS011;10038;42.662;23.278;2023-08-08T00:32:24;2.07;;;1.80;;
19758;SDS011;10038;42.662;23.278;2023-08-08T00:34:51;2.53;;;1.70;;
19758;SDS011;10038;42.662;23.278;2023-08-08T00:37:18;1.60;;;1.50;;
19758;SDS011;10038;42.662;23.278;2023-08-08T00:39:45;1.53;;;1.43;;
19758;SDS011;10038;42.662;23.278;2023-08-08T00:42:12;1.70;;;1.60;;
19758;SDS011;10038;42.662;23.278;2023-08-08T00:44:39;2.03;;;1.80;;
19758;SDS011;10038;42.662;23.278;2023-08-08T00:47:06;1.60;;;1.50;;
19758;SDS011;10038;42.662;23.278;2023-08-08T00:49:34;2.00;;;1.90;;
19758;SDS011;10038;42.662;23.278;2023-08-08T00:52:01;1.87;;;1.70;;
19758;SDS011;10038;42.662;23.278;2023-08-08T00:54:28;2.83;;;1.60;;
19758;SDS011;10038;42.662;23.278;2023-08-08T00:56:56;2.33;;;2.00;;
19758;SDS011;10038;42.662;23.278;2023-08-08T00:59:23;2.37;;;1.90;;
19758;SDS011;10038;42.662;23.278;2023-08-08T01:01:50;1.83;;;1.73;;
19758;SDS011;10038;42.662;23.278;2023-08-08T01:04:17;2.20;;;2.00;;
19758;SDS011;10038;42.662;23.278;2023-08-08T01:06:48;2.23;;;1.83;;
19758;SDS011;10038;42.662;23.278;2023-08-08T01:09:21;1.60;;;1.50;;
19758;SDS011;10038;42.662;23.278;2023-08-08T01:11:52;2.30;;;2.10;;
19758;SDS011;10038;42.662;23.278;2023-08-08T01:14:20;1.80;;;1.70;;
19758;SDS011;10038;42.662;23.278;2023-08-08T01:16:50;2.10;;;1.90;;
19758;SDS011;10038;42.662;23.278;2023-08-08T01:19:23;1.50;;;1.40;;
19758;SDS011;10038;42.662;23.278;2023-08-08T01:21:54;1.60;;;1.50;;
19758;SDS011;10038;42.662;23.278;2023-08-08T01:24:28;1.73;;;1.63;;
19758;SDS011;10038;42.662;23.278;2023-08-08T01:26:58;2.10;;;1.73;;
19758;SDS011;10038;42.662;23.278;2023-08-08T01:29:25;1.97;;;1.77;;
19758;SDS011;10038;42.662;23.278;2023-08-08T01:31:53;1.93;;;1.53;;
19758;SDS011;10038;42.662;23.278;2023-08-08T01:34:20;2.10;;;1.80;;
19758;SDS011;10038;42.662;23.278;2023-08-08T01:36:48;1.70;;;1.60;;
19758;SDS011;10038;42.662;23.278;2023-08-08T01:39:22;2.37;;;2.17;;
19758;SDS011;10038;42.662;23.278;2023-08-08T01:41:54;1.90;;;1.77;;
19758;SDS011;10038;42.662;23.278;2023-08-08T01:44:22;2.17;;;1.80;;
19758;SDS011;10038;42.662;23.278;2023-08-08T01:46:50;2.10;;;1.90;;
19758;SDS011;10038;42.662;23.278;2023-08-08T01:49:18;3.00;;;1.90;;
19758;SDS011;10038;42.662;23.278;2023-08-08T01:51:45;2.27;;;2.07;;
19758;SDS011;10038;42.662;23.278;2023-08-08T01:54:13;1.70;;;1.50;;
19758;SDS011;10038;42.662;23.278;2023-08-08T01:56:40;2.83;;;2.00;;
19758;SDS011;10038;42.662;23.278;2023-08-08T01:59:08;1.80;;;1.67;;
19758;SDS011;10038;42.662;23.278;2023-08-08T02:01:35;4.13;;;2.03;;
19758;SDS011;10038;42.662;23.278;2023-08-08T02:04:02;2.10;;;1.60;;
19758;SDS011;10038;42.662;23.278;2023-08-08T02:06:29;1.80;;;1.70;;
19758;SDS011;10038;42.662;23.278;2023-08-08T02:08:56;1.83;;;1.50;;
19758;SDS011;10038;42.662;23.278;2023-08-08T02:11:23;1.80;;;1.67;;
19758;SDS011;10038;42.662;23.278;2023-08-08T02:13:50;2.03;;;1.83;;
19758;SDS011;10038;42.662;23.278;2023-08-08T02:16:18;2.40;;;2.00;;
19758;SDS011;10038;42.662;23.278;2023-08-08T02:18:45;1.80;;;1.50;;
19758;SDS011;10038;42.662;23.278;2023-08-08T02:21:11;1.90;;;1.70;;
19758;SDS011;10038;42.662;23.278;2023-08-08T02:23:38;1.80;;;1.70;;
19758;SDS011;10038;42.662;23.278;2023-08-08T02:26:05;2.00;;;1.57;;
19758;SDS011;10038;42.662;23.278;2023-08-08T02:28:32;1.97;;;1.53;;
19758;SDS011;10038;42.662;23.278;2023-08-08T02:30:59;2.23;;;1.70;;
19758;SDS011;10038;42.662;23.278;2023-08-08T02:33:27;3.37;;;1.77;;
19758;SDS011;10038;42.662;23.278;2023-08-08T02:35:54;1.97;;;1.87;;
19758;SDS011;10038;42.662;23.278;2023-08-08T02:38:21;2.67;;;1.70;;
19758;SDS011;10038;42.662;23.278;2023-08-08T02:40:48;3.47;;;2.00;;
19758;SDS011;10038;42.662;23.278;2023-08-08T02:43:15;1.90;;;1.73;;
19758;SDS011;10038;42.662;23.278;2023-08-08T02:45:41;4.50;;;2.07;;
19758;SDS011;10038;42.662;23.278;2023-08-08T02:48:08;2.10;;;1.90;;
19758;SDS011;10038;42.662;23.278;2023-08-08T02:50:36;2.53;;;2.33;;
19758;SDS011;10038;42.662;23.278;2023-08-08T02:53:03;4.57;;;3.07;;
19758;SDS011;10038;42.662;23.278;2023-08-08T02:55:30;3.50;;;2.00;;
19758;SDS011;10038;42.662;23.278;2023-08-08T02:57:57;2.60;;;2.40;;
19758;SDS011;10038;42.662;23.278;2023-08-08T03:00:24;2.43;;;2.23;;
19758;SDS011;10038;42.662;23.278;2023-08-08T03:02:51;2.10;;;1.90;;
19758;SDS011;10038;42.662;23.278;2023-08-08T03:05:18;3.40;;;2.13;;
19758;SDS011;10038;42.662;23.278;2023-08-08T03:07:46;2.40;;;2.20;;
19758;SDS011;10038;42.662;23.278;2023-08-08T03:10:13;2.83;;;2.40;;
19758;SDS011;10038;42.662;23.278;2023-08-08T03:12:40;2.57;;;2.37;;
19758;SDS011;10038;42.662;23.278;2023-08-08T03:15:07;2.30;;;2.10;;
19758;SDS011;10038;42.662;23.278;2023-08-08T03:17:35;3.17;;;2.23;;
19758;SDS011;10038;42.662;23.278;2023-08-08T03:20:02;3.00;;;2.70;;
19758;SDS011;10038;42.662;23.278;2023-08-08T03:22:31;2.90;;;2.70;;
19758;SDS011;10038;42.662;23.278;2023-08-08T03:24:59;2.27;;;2.07;;
19758;SDS011;10038;42.662;23.278;2023-08-08T03:27:26;2.73;;;2.40;;
19758;SDS011;10038;42.662;23.278;2023-08-08T03:29:53;4.00;;;2.60;;
19758;SDS011;10038;42.662;23.278;2023-08-08T03:32:20;2.80;;;2.60;;
19758;SDS011;10038;42.662;23.278;2023-08-08T03:34:46;3.37;;;2.47;;
19758;SDS011;10038;42.662;23.278;2023-08-08T03:37:13;3.17;;;2.97;;
19758;SDS011;10038;42.662;23.278;2023-08-08T03:39:40;2.93;;;2.63;;
19758;SDS011;10038;42.662;23.278;2023-08-08T03:42:09;3.37;;;3.10;;
19758;SDS011;10038;42.662;23.278;2023-08-08T03:44:35;3.90;;;2.93;;
19758;SDS011;10038;42.662;23.278;2023-08-08T03:47:02;3.10;;;2.80;;
19758;SDS011;10038;42.662;23.278;2023-08-08T03:49:29;2.87;;;2.63;;
19758;SDS011;10038;42.662;23.278;2023-08-08T03:51:56;4.23;;;2.93;;
19758;SDS011;10038;42.662;23.278;2023-08-08T03:54:23;3.20;;;2.90;;
19758;SDS011;10038;42.662;23.278;2023-08-08T03:56:50;3.20;;;3.00;;
19758;SDS011;10038;42.662;23.278;2023-08-08T03:59:18;3.70;;;3.40;;
19758;SDS011;10038;42.662;23.278;2023-08-08T04:01:45;3.53;;;2.40;;
19758;SDS011;10038;42.662;23.278;2023-08-08T04:04:12;2.90;;;2.70;;
19758;SDS011;10038;42.662;23.278;2023-08-08T04:06:39;3.60;;;3.30;;
19758;SDS011;10038;42.662;23.278;2023-08-08T04:09:06;2.90;;;2.70;;
19758;SDS011;10038;42.662;23.278;2023-08-08T04:11:33;3.20;;;2.90;;
19758;SDS011;10038;42.662;23.278;2023-08-08T04:14:01;3.03;;;2.73;;
19758;SDS011;10038;42.662;23.278;2023-08-08T04:16:29;2.80;;;2.60;;
19758;SDS011;10038;42.662;23.278;2023-08-08T04:18:56;3.60;;;3.40;;
19758;SDS011;10038;42.662;23.278;2023-08-08T04:21:24;3.73;;;3.37;;
19758;SDS011;10038;42.662;23.278;2023-08-08T04:23:54;3.27;;;2.77;;
19758;SDS011;10038;42.662;23.278;2023-08-08T04:26:20;3.67;;;3.37;;
19758;SDS011;10038;42.662;23.278;2023-08-08T04:28:47;3.30;;;3.00;;
19758;SDS011;10038;42.662;23.278;2023-08-08T04:31:14;3.73;;;3.30;;
19758;SDS011;10038;42.662;23.278;2023-08-08T04:33:42;3.63;;;3.10;;
19758;SDS011;10038;42.662;23.278;2023-08-08T04:36:09;6.13;;;3.23;;
19758;SDS011;10038;42.662;23.278;2023-08-08T04:38:36;4.20;;;3.53;;
19758;SDS011;10038;42.662;23.278;2023-08-08T04:41:03;5.30;;;3.60;;
19758;SDS011;10038;42.662;23.278;2023-08-08T04:43:30;3.50;;;3.20;;
19758;SDS011;10038;42.662;23.278;2023-08-08T04:45:57;3.77;;;3.27;;
19758;SDS011;10038;42.662;23.278;2023-08-08T04:48:23;3.40;;;3.10;;
19758;SDS011;10038;42.662;23.278;2023-08-08T04:50:52;5.43;;;3.27;;
19758;SDS011;10038;42.662;23.278;2023-08-08T04:53:18;3.50;;;3.20;;
19758;SDS011;10038;42.662;23.278;2023-08-08T04:55:45;3.07;;;2.87;;
19758;SDS011;10038;42.662;23.278;2023-08-08T04:58:12;3.00;;;2.80;;
19758;SDS011;10038;42.662;23.278;2023-08-08T05:00:39;3.70;;;3.40;;
19758;SDS011;10038;42.662;23.278;2023-08-08T05:03:06;3.50;;;3.23;;
19758;SDS011;10038;42.662;23.278;2023-08-08T05:05:33;4.23;;;3.80;;
19758;SDS011;10038;42.662;23.278;2023-08-08T05:08:01;3.83;;;3.53;;
19758;SDS011;10038;42.662;23.278;2023-08-08T05:10:28;3.30;;;3.00;;
19758;SDS011;10038;42.662;23.278;2023-08-08T05:12:56;3.20;;;2.90;;
19758;SDS011;10038;42.662;23.278;2023-08-08T05:15:23;3.37;;;3.07;;
19758;SDS011;10038;42.662;23.278;2023-08-08T05:17:49;3.20;;;2.90;;
19758;SDS011;10038;42.662;23.278;2023-08-08T05:20:19;2.83;;;2.53;;
19758;SDS011;10038;42.662;23.278;2023-08-08T05:22:46;3.37;;;3.10;;
19758;SDS011;10038;42.662;23.278;2023-08-08T05:25:14;3.33;;;3.10;;
19758;SDS011;10038;42.662;23.278;2023-08-08T05:27:41;3.97;;;2.90;;
19758;SDS011;10038;42.662;23.278;2023-08-08T05:30:08;3.83;;;3.53;;
19758;SDS011;10038;42.662;23.278;2023-08-08T05:32:35;3.10;;;2.83;;
19758;SDS011;10038;42.662;23.278;2023-08-08T05:35:03;7.50;;;3.37;;
19758;SDS011;10038;42.662;23.278;2023-08-08T05:37:30;2.93;;;2.70;;
19758;SDS011;10038;42.662;23.278;2023-08-08T05:39:57;3.20;;;2.83;;
19758;SDS011;10038;42.662;23.278;2023-08-08T05:42:26;2.60;;;2.40;;
19758;SDS011;10038;42.662;23.278;2023-08-08T05:44:53;2.67;;;2.47;;
19758;SDS011;10038;42.662;23.278;2023-08-08T05:47:19;3.17;;;2.87;;
19758;SDS011;10038;42.662;23.278;2023-08-08T05:49:46;2.90;;;2.70;;
19758;SDS011;10038;42.662;23.278;2023-08-08T05:52:13;3.63;;;3.20;;
19758;SDS011;10038;42.662;23.278;2023-08-08T05:54:40;3.33;;;3.03;;
19758;SDS011;10038;42.662;23.278;2023-08-08T05:57:07;3.70;;;3.50;;
19758;SDS011;10038;42.662;23.278;2023-08-08T05:59:35;4.70;;;4.33;;
19758;SDS011;10038;42.662;23.278;2023-08-08T06:02:02;4.10;;;3.80;;
19758;SDS011;10038;42.662;23.278;2023-08-08T06:04:29;5.90;;;3.77;;
19758;SDS011;10038;42.662;23.278;2023-08-08T06:06:56;4.13;;;3.80;;
19758;SDS011;10038;42.662;23.278;2023-08-08T06:09:23;5.00;;;4.60;;
19758;SDS011;10038;42.662;23.278;2023-08-08T06:11:50;4.00;;;3.70;;
19758;SDS011;10038;42.662;23.278;2023-08-08T06:14:17;4.60;;;4.20;;
19758;SDS011;10038;42.662;23.278;2023-08-08T06:16:46;3.93;;;3.70;;
19758;SDS011;10038;42.662;23.278;2023-08-08T06:19:12;3.80;;;3.40;;
19758;SDS011;10038;42.662;23.278;2023-08-08T06:21:40;3.10;;;2.90;;
19758;SDS011;10038;42.662;23.278;2023-08-08T06:24:07;5.00;;;3.30;;
19758;SDS011;10038;42.662;23.278;2023-08-08T06:26:34;3.30;;;2.97;;
19758;SDS011;10038;42.662;23.278;2023-08-08T06:29:01;3.10;;;2.90;;
19758;SDS011;10038;42.662;23.278;2023-08-08T06:31:29;3.70;;;3.27;;
19758;SDS011;10038;42.662;23.278;2023-08-08T06:33:57;2.80;;;2.60;;
19758;SDS011;10038;42.662;23.278;2023-08-08T06:36:24;3.10;;;2.87;;
19758;SDS011;10038;42.662;23.278;2023-08-08T06:38:50;2.63;;;2.43;;
19758;SDS011;10038;42.662;23.278;2023-08-08T06:41:17;2.87;;;2.67;;
19758;SDS011;10038;42.662;23.278;2023-08-08T06:43:44;2.30;;;2.20;;
19758;SDS011;10038;42.662;23.278;2023-08-08T06:46:11;2.80;;;2.60;;
19758;SDS011;10038;42.662;23.278;2023-08-08T06:48:38;2.83;;;2.63;;
19758;SDS011;10038;42.662;23.278;2023-08-08T06:51:06;2.70;;;2.40;;
19758;SDS011;10038;42.662;23.278;2023-08-08T06:53:33;1.77;;;1.67;;
19758;SDS011;10038;42.662;23.278;2023-08-08T06:56:00;1.90;;;1.80;;
19758;SDS011;10038;42.662;23.278;2023-08-08T06:58:27;1.77;;;1.67;;
19758;SDS011;10038;42.662;23.278;2023-08-08T07:00:54;2.27;;;1.67;;
19758;SDS011;10038;42.662;23.278;2023-08-08T07:03:21;2.43;;;2.23;;
19758;SDS011;10038;42.662;23.278;2023-08-08T07:05:47;2.03;;;1.80;;
19758;SDS011;10038;42.662;23.278;2023-08-08T07:08:18;2.23;;;2.03;;
19758;SDS011;10038;42.662;23.278;2023-08-08T07:10:45;1.90;;;1.80;;
19758;SDS011;10038;42.662;23.278;2023-08-08T07:13:12;2.67;;;1.80;;
19758;SDS011;10038;42.662;23.278;2023-08-08T07:15:40;1.87;;;1.67;;
19758;SDS011;10038;42.662;23.278;2023-08-08T07:18:07;2.27;;;1.70;;
19758;SDS011;10038;42.662;23.278;2023-08-08T07:20:37;1.87;;;1.77;;
19758;SDS011;10038;42.662;23.278;2023-08-08T07:23:04;3.80;;;1.70;;
19758;SDS011;10038;42.662;23.278;2023-08-08T07:25:33;1.80;;;1.60;;
19758;SDS011;10038;42.662;23.278;2023-08-08T07:28:00;1.97;;;1.77;;
19758;SDS011;10038;42.662;23.278;2023-08-08T07:30:27;2.00;;;1.37;;
19758;SDS011;10038;42.662;23.278;2023-08-08T07:32:54;1.47;;;1.37;;
19758;SDS011;10038;42.662;23.278;2023-08-08T07:35:21;5.03;;;1.77;;
19758;SDS011;10038;42.662;23.278;2023-08-08T07:37:48;4.57;;;1.47;;
19758;SDS011;10038;42.662;23.278;2023-08-08T07:40:15;1.80;;;1.30;;
19758;SDS011;10038;42.662;23.278;2023-08-08T07:42:44;1.30;;;1.20;;
19758;SDS011;10038;42.662;23.278;2023-08-08T07:45:12;6.87;;;1.53;;
19758;SDS011;10038;42.662;23.278;2023-08-08T07:47:39;1.70;;;1.37;;
19758;SDS011;10038;42.662;23.278;2023-08-08T07:50:06;1.23;;;1.13;;
19758;SDS011;10038;42.662;23.278;2023-08-08T07:52:34;1.67;;;1.30;;
19758;SDS011;10038;42.662;23.278;2023-08-08T07:55:01;2.43;;;1.27;;
19758;SDS011;10038;42.662;23.278;2023-08-08T07:57:28;1.40;;;1.30;;
19758;SDS011;10038;42.662;23.278;2023-08-08T07:59:58;2.03;;;1.40;;
19758;SDS011;10038;42.662;23.278;2023-08-08T08:02:30;1.50;;;1.40;;
19758;SDS011;10038;42.662;23.278;2023-08-08T08:04:57;1.50;;;1.40;;
19758;SDS011;10038;42.662;23.278;2023-08-08T08:07:24;1.50;;;1.40;;
19758;SDS011;10038;42.662;23.278;2023-08-08T08:09:51;1.90;;;1.50;;
19758;SDS011;10038;42.662;23.278;2023-08-08T08:12:17;2.30;;;1.40;;
19758;SDS011;10038;42.662;23.278;2023-08-08T08:14:45;1.60;;;1.50;;
19758;SDS011;10038;42.662;23.278;2023-08-08T08:17:14;1.50;;;1.40;;
19758;SDS011;10038;42.662;23.278;2023-08-08T08:19:41;3.00;;;1.40;;
19758;SDS011;10038;42.662;23.278;2023-08-08T08:22:08;1.87;;;1.50;;
19758;SDS011;10038;42.662;23.278;2023-08-08T08:24:35;1.50;;;1.40;;
19758;SDS011;10038;42.662;23.278;2023-08-08T08:27:02;2.97;;;1.57;;
19758;SDS011;10038;42.662;23.278;2023-08-08T08:29:29;1.50;;;1.40;;
19758;SDS011;10038;42.662;23.278;2023-08-08T08:31:56;1.50;;;1.40;;
19758;SDS011;10038;42.662;23.278;2023-08-08T08:34:25;2.40;;;1.50;;
19758;SDS011;10038;42.662;23.278;2023-08-08T08:36:51;1.77;;;1.67;;
19758;SDS011;10038;42.662;23.278;2023-08-08T08:39:18;1.53;;;1.43;;
19758;SDS011;10038;42.662;23.278;2023-08-08T08:41:46;1.50;;;1.40;;
19758;SDS011;10038;42.662;23.278;2023-08-08T08:44:16;5.13;;;1.80;;
19758;SDS011;10038;42.662;23.278;2023-08-08T08:46:43;1.70;;;1.60;;
19758;SDS011;10038;42.662;23.278;2023-08-08T08:49:14;1.97;;;1.70;;
19758;SDS011;10038;42.662;23.278;2023-08-08T08:51:45;1.70;;;1.60;;
19758;SDS011;10038;42.662;23.278;2023-08-08T08:54:12;1.70;;;1.60;;
19758;SDS011;10038;42.662;23.278;2023-08-08T08:56:39;2.03;;;1.67;;
19758;SDS011;10038;42.662;23.278;2023-08-08T08:59:07;1.90;;;1.80;;
19758;SDS011;10038;42.662;23.278;2023-08-08T09:01:34;2.90;;;1.73;;
19758;SDS011;10038;42.662;23.278;2023-08-08T09:04:01;1.60;;;1.50;;
19758;SDS011;10038;42.662;23.278;2023-08-08T09:06:31;2.10;;;1.90;;
19758;SDS011;10038;42.662;23.278;2023-08-08T09:09:00;1.80;;;1.70;;
19758;SDS011;10038;42.662;23.278;2023-08-08T09:11:27;1.50;;;1.40;;
19758;SDS011;10038;42.662;23.278;2023-08-08T09:13:54;1.80;;;1.70;;
19758;SDS011;10038;42.662;23.278;2023-08-08T09:16:21;3.03;;;1.60;;
19758;SDS011;10038;42.662;23.278;2023-08-08T09:18:49;1.40;;;1.20;;
19758;SDS011;10038;42.662;23.278;2023-08-08T09:21:18;2.03;;;1.60;;
19758;SDS011;10038;42.662;23.278;2023-08-08T09:23:45;1.70;;;1.60;;
19758;SDS011;10038;42.662;23.278;2023-08-08T09:26:14;1.70;;;1.60;;
19758;SDS011;10038;42.662;23.278;2023-08-08T09:28:42;1.53;;;1.43;;
19758;SDS011;10038;42.662;23.278;2023-08-08T09:31:09;1.70;;;1.60;;
19758;SDS011;10038;42.662;23.278;2023-08-08T09:33:38;1.70;;;1.53;;
19758;SDS011;10038;42.662;23.278;2023-08-08T09:36:05;1.60;;;1.50;;
19758;SDS011;10038;42.662;23.278;2023-08-08T09:38:32;2.20;;;2.00;;
19758;SDS011;10038;42.662;23.278;2023-08-08T09:40:59;1.50;;;1.40;;
19758;SDS011;10038;42.662;23.278;2023-08-08T09:43:28;1.80;;;1.70;;
19758;SDS011;10038;42.662;23.278;2023-08-08T09:45:55;5.10;;;1.83;;
19758;SDS011;10038;42.662;23.278;2023-08-08T09:48:22;1.80;;;1.70;;
19758;SDS011;10038;42.662;23.278;2023-08-08T09:50:49;2.93;;;2.00;;
19758;SDS011;10038;42.662;23.278;2023-08-08T09:53:17;3.43;;;2.07;;
19758;SDS011;10038;42.662;23.278;2023-08-08T09:55:45;1.80;;;1.70;;
19758;SDS011;10038;42.662;23.278;2023-08-08T09:58:13;1.80;;;1.70;;
19758;SDS011;10038;42.662;23.278;2023-08-08T10:00:42;1.57;;;1.47;;
19758;SDS011;10038;42.662;23.278;2023-08-08T10:03:10;1.90;;;1.80;;
19758;SDS011;10038;42.662;23.278;2023-08-08T10:05:37;1.43;;;1.30;;
19758;SDS011;10038;42.662;23.278;2023-08-08T10:08:04;1.80;;;1.70;;
19758;SDS011;10038;42.662;23.278;2023-08-08T10:10:31;3.10;;;1.37;;
19758;SDS011;10038;42.662;23.278;2023-08-08T10:12:59;2.83;;;1.60;;
19758;SDS011;10038;42.662;23.278;2023-08-08T10:15:26;1.67;;;1.57;;
19758;SDS011;10038;42.662;23.278;2023-08-08T10:17:55;2.17;;;1.50;;
19758;SDS011;10038;42.662;23.278;2023-08-08T10:20:23;1.63;;;1.53;;
19758;SDS011;10038;42.662;23.278;2023-08-08T10:22:51;1.80;;;1.70;;
19758;SDS011;10038;42.662;23.278;2023-08-08T10:25:22;1.53;;;1.43;;
19758;SDS011;10038;42.662;23.278;2023-08-08T10:28:01;4.50;;;1.70;;
19758;SDS011;10038;42.662;23.278;2023-08-08T10:30:30;1.53;;;1.43;;
19758;SDS011;10038;42.662;23.278;2023-08-08T10:33:16;1.60;;;1.47;;
19758;SDS011;10038;42.662;23.278;2023-08-08T10:35:50;1.80;;;1.70;;
19758;SDS011;10038;42.662;23.278;2023-08-08T10:38:21;1.97;;;1.40;;
19758;SDS011;10038;42.662;23.278;2023-08-08T10:40:53;2.07;;;1.53;;
19758;SDS011;10038;42.662;23.278;2023-08-08T10:43:25;1.70;;;1.60;;
19758;SDS011;10038;42.662;23.278;2023-08-08T10:45:56;1.90;;;1.80;;
19758;SDS011;10038;42.662;23.278;2023-08-08T10:48:26;2.20;;;1.60;;
19758;SDS011;10038;42.662;23.278;2023-08-08T10:50:54;1.60;;;1.50;;
19758;SDS011;10038;42.662;23.278;2023-08-08T10:53:22;1.50;;;1.40;;
19758;SDS011;10038;42.662;23.278;2023-08-08T10:55:57;1.60;;;1.50;;
19758;SDS011;10038;42.662;23.278;2023-08-08T10:58:34;1.40;;;1.30;;
19758;SDS011;10038;42.662;23.278;2023-08-08T11:01:02;2.03;;;1.30;;
19758;SDS011;10038;42.662;23.278;2023-08-08T11:03:35;2.07;;;1.30;;
19758;SDS011;10038;42.662;23.278;2023-08-08T11:06:04;1.60;;;1.50;;
19758;SDS011;10038;42.662;23.278;2023-08-08T11:08:32;1.40;;;1.30;;
19758;SDS011;10038;42.662;23.278;2023-08-08T11:11:00;2.90;;;1.47;;
19758;SDS011;10038;42.662;23.278;2023-08-08T11:13:27;1.40;;;1.30;;
19758;SDS011;10038;42.662;23.278;2023-08-08T11:15:54;1.97;;;1.40;;
19758;SDS011;10038;42.662;23.278;2023-08-08T11:18:22;1.50;;;1.40;;
19758;SDS011;10038;42.662;23.278;2023-08-08T11:20:51;1.30;;;1.20;;
19758;SDS011;10038;42.662;23.278;2023-08-08T11:23:18;1.30;;;1.20;;
19758;SDS011;10038;42.662;23.278;2023-08-08T11:25:46;1.40;;;1.30;;
19758;SDS011;10038;42.662;23.278;2023-08-08T11:28:13;1.40;;;1.30;;
19758;SDS011;10038;42.662;23.278;2023-08-08T11:30:41;3.10;;;1.63;;
19758;SDS011;10038;42.662;23.278;2023-08-08T11:33:10;2.23;;;1.30;;
19758;SDS011;10038;42.662;23.278;2023-08-08T11:35:43;2.37;;;1.23;;
19758;SDS011;10038;42.662;23.278;2023-08-08T11:38:13;1.40;;;1.30;;
19758;SDS011;10038;42.662;23.278;2023-08-08T11:40:41;1.53;;;1.43;;
19758;SDS011;10038;42.662;23.278;2023-08-08T11:43:08;1.20;;;1.00;;
19758;SDS011;10038;42.662;23.278;2023-08-08T11:45:36;1.30;;;1.20;;
19758;SDS011;10038;42.662;23.278;2023-08-08T11:48:04;3.00;;;1.57;;
19758;SDS011;10038;42.662;23.278;2023-08-08T11:50:31;1.60;;;1.40;;
19758;SDS011;10038;42.662;23.278;2023-08-08T11:52:58;1.30;;;1.20;;
19758;SDS011;10038;42.662;23.278;2023-08-08T11:55:30;1.53;;;1.43;;
19758;SDS011;10038;42.662;23.278;2023-08-08T11:57:57;1.83;;;1.40;;
19758;SDS011;10038;42.662;23.278;2023-08-08T12:00:28;1.50;;;1.40;;
19758;SDS011;10038;42.662;23.278;2023-08-08T12:02:56;1.93;;;1.40;;
19758;SDS011;10038;42.662;23.278;2023-08-08T12:05:24;2.50;;;1.40;;
19758;SDS011;10038;42.662;23.278;2023-08-08T12:07:51;1.43;;;1.20;;
19758;SDS011;10038;42.662;23.278;2023-08-08T12:10:19;1.50;;;1.40;;
19758;SDS011;10038;42.662;23.278;2023-08-08T12:12:53;1.40;;;1.30;;
19758;SDS011;10038;42.662;23.278;2023-08-08T12:15:22;1.47;;;1.37;;
19758;SDS011;10038;42.662;23.278;2023-08-08T12:17:49;1.33;;;1.23;;
19758;SDS011;10038;42.662;23.278;2023-08-08T12:20:16;1.40;;;1.30;;
19758;SDS011;10038;42.662;23.278;2023-08-08T12:22:43;1.60;;;1.40;;
19758;SDS011;10038;42.662;23.278;2023-08-08T12:25:10;3.20;;;1.50;;
19758;SDS011;10038;42.662;23.278;2023-08-08T12:27:37;1.50;;;1.40;;
19758;SDS011;10038;42.662;23.278;2023-08-08T12:30:07;2.20;;;1.57;;
19758;SDS011;10038;42.662;23.278;2023-08-08T12:32:34;1.40;;;1.30;;
19758;SDS011;10038;42.662;23.278;2023-08-08T12:35:01;1.60;;;1.50;;
19758;SDS011;10038;42.662;23.278;2023-08-08T12:37:28;1.33;;;1.23;;
19758;SDS011;10038;42.662;23.278;2023-08-08T12:39:55;2.07;;;1.30;;
19758;SDS011;10038;42.662;23.278;2023-08-08T12:42:22;1.50;;;1.40;;
19758;SDS011;10038;42.662;23.278;2023-08-08T12:44:49;1.63;;;1.53;;
19758;SDS011;10038;42.662;23.278;2023-08-08T12:47:18;1.70;;;1.60;;
19758;SDS011;10038;42.662;23.278;2023-08-08T12:49:45;1.60;;;1.50;;
19758;SDS011;10038;42.662;23.278;2023-08-08T12:52:13;1.73;;;1.50;;
19758;SDS011;10038;42.662;23.278;2023-08-08T12:54:40;1.97;;;1.50;;
19758;SDS011;10038;42.662;23.278;2023-08-08T12:57:06;1.50;;;1.40;;
19758;SDS011;10038;42.662;23.278;2023-08-08T12:59:34;1.60;;;1.50;;
19758;SDS011;10038;42.662;23.278;2023-08-08T13:02:01;1.40;;;1.30;;
19758;SDS011;10038;42.662;23.278;2023-08-08T13:04:29;1.37;;;1.27;;
19758;SDS011;10038;42.662;23.278;2023-08-08T13:06:56;1.47;;;1.33;;
19758;SDS011;10038;42.662;23.278;2023-08-08T13:09:24;1.50;;;1.40;;
19758;SDS011;10038;42.662;23.278;2023-08-08T13:11:51;1.67;;;1.57;;
19758;SDS011;10038;42.662;23.278;2023-08-08T13:14:18;5.33;;;1.70;;
19758;SDS011;10038;42.662;23.278;2023-08-08T13:16:44;1.73;;;1.63;;
19758;SDS011;10038;42.662;23.278;2023-08-08T13:19:11;1.50;;;1.40;;
19758;SDS011;10038;42.662;23.278;2023-08-08T13:21:41;1.67;;;1.37;;
19758;SDS011;10038;42.662;23.278;2023-08-08T13:24:08;1.50;;;1.30;;
19758;SDS011;10038;42.662;23.278;2023-08-08T13:26:38;1.70;;;1.60;;
19758;SDS011;10038;42.662;23.278;2023-08-08T13:29:04;1.60;;;1.50;;
19758;SDS011;10038;42.662;23.278;2023-08-08T13:31:31;1.83;;;1.43;;
19758;SDS011;10038;42.662;23.278;2023-08-08T13:33:58;1.93;;;1.50;;
19758;SDS011;10038;42.662;23.278;2023-08-08T13:36:25;1.80;;;1.70;;
19758;SDS011;10038;42.662;23.278;2023-08-08T13:38:54;1.50;;;1.40;;
19758;SDS011;10038;42.662;23.278;2023-08-08T13:41:21;1.50;;;1.30;;
19758;SDS011;10038;42.662;23.278;2023-08-08T13:43:48;3.87;;;1.60;;
19758;SDS011;10038;42.662;23.278;2023-08-08T13:46:14;1.53;;;1.43;;
19758;SDS011;10038;42.662;23.278;2023-08-08T13:48:42;1.97;;;1.43;;
19758;SDS011;10038;42.662;23.278;2023-08-08T13:51:08;1.60;;;1.50;;
19758;SDS011;10038;42.662;23.278;2023-08-08T13:53:35;2.07;;;1.87;;
19758;SDS011;10038;42.662;23.278;2023-08-08T13:56:04;1.70;;;1.60;;
19758;SDS011;10038;42.662;23.278;2023-08-08T13:58:31;1.90;;;1.60;;
19758;SDS011;10038;42.662;23.278;2023-08-08T14:00:58;4.70;;;1.40;;
19758;SDS011;10038;42.662;23.278;2023-08-08T14:03:25;1.53;;;1.43;;
19758;SDS011;10038;42.662;23.278;2023-08-08T14:05:52;2.33;;;1.57;;
19758;SDS011;10038;42.662;23.278;2023-08-08T14:08:18;1.43;;;1.33;;
19758;SDS011;10038;42.662;23.278;2023-08-08T14:10:46;2.70;;;1.40;;
19758;SDS011;10038;42.662;23.278;2023-08-08T14:13:14;2.77;;;1.57;;
19758;SDS011;10038;42.662;23.278;2023-08-08T14:15:41;1.33;;;1.23;;
19758;SDS011;10038;42.662;23.278;2023-08-08T14:18:08;1.63;;;1.53;;
19758;SDS011;10038;42.662;23.278;2023-08-08T14:20:35;1.73;;;1.63;;
19758;SDS011;10038;42.662;23.278;2023-08-08T14:23:03;1.50;;;1.40;;
19758;SDS011;10038;42.662;23.278;2023-08-08T14:25:30;1.73;;;1.63;;
19758;SDS011;10038;42.662;23.278;2023-08-08T14:27:57;3.40;;;1.50;;
19758;SDS011;10038;42.662;23.278;2023-08-08T14:30:26;2.60;;;1.57;;
19758;SDS011;10038;42.662;23.278;2023-08-08T14:32:53;2.00;;;1.80;;
19758;SDS011;10038;42.662;23.278;2023-08-08T14:35:20;1.70;;;1.60;;